createdAt,value
2022-11-23T00:01:37.335Z,1.06
2022-11-23T00:04:13.382Z,1.08
2022-11-23T00:06:41.501Z,1.25
2022-11-23T00:09:10.756Z,1.33
2022-11-23T00:11:37.873Z,1.20
2022-11-23T00:14:05.198Z,1.06
2022-11-23T00:16:32.404Z,1.04
2022-11-23T00:19:01.943Z,0.88
2022-11-23T00:21:32.845Z,1.01
2022-11-23T00:24:00.500Z,0.92
2022-11-23T00:26:28.144Z,1.18
2022-11-23T00:28:55.210Z,1.27
2022-11-23T00:31:22.753Z,1.14
2022-11-23T00:33:53.584Z,1.00
2022-11-23T00:36:22.792Z,1.20
2022-11-23T00:38:51.182Z,1.14
2022-11-23T00:41:24.070Z,1.11
2022-11-23T00:43:51.484Z,1.08
2022-11-23T00:46:28.095Z,1.22
2022-11-23T00:48:57.374Z,1.24
2022-11-23T00:51:29.545Z,1.14
2022-11-23T00:53:56.797Z,1.17
2022-11-23T00:56:23.941Z,1.21
2022-11-23T00:58:56.552Z,1.11
2022-11-23T01:01:29.220Z,1.11
2022-11-23T01:03:59.499Z,1.03
2022-11-23T01:06:33.929Z,0.85
2022-11-23T01:09:17.217Z,1.02
2022-11-23T01:11:45.280Z,1.01
2022-11-23T01:14:12.927Z,0.92
2022-11-23T01:16:42.065Z,1.09
2022-11-23T01:19:14.779Z,0.97
2022-11-23T01:21:42.505Z,0.95
2022-11-23T01:24:22.079Z,0.99
2022-11-23T01:26:54.661Z,0.86
2022-11-23T01:29:23.783Z,0.91
2022-11-23T01:31:51.024Z,0.92
2022-11-23T01:34:18.313Z,0.87
2022-11-23T01:36:45.624Z,1.05
2022-11-23T01:39:13.895Z,1.16
2022-11-23T01:41:44.501Z,1.10
2022-11-23T01:44:32.954Z,1.19
2022-11-23T01:47:07.909Z,1.05
2022-11-23T01:49:46.204Z,1.24
2022-11-23T01:52:26.039Z,1.07
2022-11-23T01:55:01.544Z,1.28
2022-11-23T01:57:41.022Z,1.24
2022-11-23T02:00:09.278Z,1.26
2022-11-23T02:02:38.759Z,1.22
2022-11-23T02:05:06.760Z,1.23
2022-11-23T02:07:35.188Z,1.32
2022-11-23T02:10:02.734Z,1.20
2022-11-23T02:12:29.705Z,1.22
2022-11-23T02:14:56.727Z,1.24
2022-11-23T02:17:23.736Z,1.33
2022-11-23T02:20:05.591Z,1.32
2022-11-23T02:22:54.534Z,1.30
2022-11-23T02:25:45.496Z,1.36
2022-11-23T02:28:22.934Z,1.12
2022-11-23T02:30:53.181Z,1.25
2022-11-23T02:33:20.236Z,1.32
2022-11-23T02:35:55.208Z,1.28
2022-11-23T02:38:25.437Z,1.18
2022-11-23T02:40:52.485Z,1.06
2022-11-23T02:43:19.822Z,1.38
2022-11-23T02:45:58.633Z,1.39
2022-11-23T02:48:26.432Z,1.33
2022-11-23T02:50:53.453Z,1.29
2022-11-23T02:53:20.519Z,1.53
2022-11-23T02:55:47.774Z,1.36
2022-11-23T02:58:14.853Z,1.21
2022-11-23T03:00:41.920Z,1.44
2022-11-23T03:03:08.941Z,1.30
2022-11-23T03:05:36.051Z,1.28
2022-11-23T03:08:03.147Z,1.44
2022-11-23T03:10:30.222Z,1.46
2022-11-23T03:12:57.560Z,1.57
2022-11-23T03:15:28.619Z,1.49
2022-11-23T03:17:58.188Z,1.35
2022-11-23T03:20:25.395Z,1.37
2022-11-23T03:22:52.473Z,1.31
2022-11-23T03:25:19.584Z,1.20
2022-11-23T03:27:47.357Z,1.20
2022-11-23T03:30:15.463Z,1.10
2022-11-23T03:32:42.435Z,1.12
2022-11-23T03:35:09.778Z,1.15
2022-11-23T03:37:36.769Z,1.13
2022-11-23T03:40:04.087Z,1.16
2022-11-23T03:42:31.048Z,1.02
2022-11-23T03:44:58.053Z,0.92
2022-11-23T03:47:25.032Z,0.97
2022-11-23T03:49:51.989Z,1.02
2022-11-23T03:52:18.992Z,0.81
2022-11-23T03:54:46.987Z,0.79
2022-11-23T03:57:14.300Z,0.79
2022-11-23T03:59:41.276Z,0.84
2022-11-23T04:02:08.305Z,0.86
2022-11-23T04:04:36.161Z,0.68
2022-11-23T04:07:03.423Z,0.73
2022-11-23T04:09:30.869Z,0.81
2022-11-23T04:11:58.102Z,0.77
2022-11-23T04:14:25.182Z,0.64
2022-11-23T04:16:52.295Z,0.63
2022-11-23T04:19:19.463Z,0.60
2022-11-23T04:21:46.545Z,0.75
2022-11-23T04:24:13.606Z,0.62
2022-11-23T04:26:41.141Z,0.71
2022-11-23T04:29:08.136Z,0.43
2022-11-23T04:31:35.188Z,0.74
2022-11-23T04:34:02.245Z,0.64
2022-11-23T04:36:29.780Z,0.53
2022-11-23T04:38:56.783Z,0.63
2022-11-23T04:41:24.906Z,0.68
2022-11-23T04:43:51.950Z,0.59
2022-11-23T04:46:19.104Z,0.72
2022-11-23T04:48:46.134Z,0.58
2022-11-23T04:51:14.168Z,0.61
2022-11-23T04:53:41.173Z,0.62
2022-11-23T04:56:08.873Z,0.61
2022-11-23T04:58:36.552Z,0.40
2022-11-23T05:01:05.668Z,0.41
2022-11-23T05:03:35.217Z,0.54
2022-11-23T05:06:03.920Z,0.52
2022-11-23T05:08:31.763Z,0.38
2022-11-23T05:10:59.021Z,0.64
2022-11-23T05:13:26.136Z,0.55
2022-11-23T05:15:53.089Z,0.37
2022-11-23T05:18:20.406Z,0.47
2022-11-23T05:20:47.950Z,0.47
2022-11-23T05:23:15.295Z,0.31
2022-11-23T05:25:42.361Z,0.34
2022-11-23T05:28:38.895Z,0.31
2022-11-23T05:31:05.803Z,0.41
2022-11-23T05:33:32.856Z,0.48
2022-11-23T05:35:59.998Z,0.59
2022-11-23T05:38:27.289Z,0.51
2022-11-23T05:40:54.266Z,0.66
2022-11-23T05:43:21.639Z,0.74
2022-11-23T05:45:48.901Z,0.72
2022-11-23T05:48:15.877Z,0.73
2022-11-23T05:50:42.839Z,0.64
2022-11-23T05:53:09.915Z,0.85
2022-11-23T05:55:36.928Z,0.95
2022-11-23T05:58:03.934Z,0.95
2022-11-23T06:00:31.025Z,0.81
2022-11-23T06:03:02.337Z,0.90
2022-11-23T06:05:30.498Z,0.90
2022-11-23T06:07:57.853Z,0.87
2022-11-23T06:10:24.978Z,0.80
2022-11-23T06:12:52.634Z,0.75
2022-11-23T06:15:20.047Z,0.90
2022-11-23T06:17:47.110Z,0.87
2022-11-23T06:20:14.369Z,0.79
2022-11-23T06:22:41.341Z,0.64
2022-11-23T06:25:09.164Z,0.71
2022-11-23T06:27:36.213Z,0.80
2022-11-23T06:30:03.996Z,0.89
2022-11-23T06:32:30.943Z,0.77
2022-11-23T06:35:00.824Z,0.76
2022-11-23T06:37:28.358Z,0.69
2022-11-23T06:39:55.341Z,0.64
2022-11-23T06:42:39.875Z,0.71
2022-11-23T06:45:08.733Z,0.69
2022-11-23T06:47:35.974Z,0.63
2022-11-23T06:50:03.295Z,0.60
2022-11-23T06:52:30.395Z,0.54
2022-11-23T06:54:57.417Z,0.51
2022-11-23T06:57:24.649Z,0.39
2022-11-23T06:59:51.672Z,0.41
2022-11-23T07:02:18.779Z,0.34
2022-11-23T07:04:45.852Z,0.35
2022-11-23T07:07:13.089Z,0.33
2022-11-23T07:09:40.391Z,0.37
2022-11-23T07:12:07.959Z,0.44
2022-11-23T07:14:35.081Z,0.15
2022-11-23T07:17:02.235Z,0.17
2022-11-23T07:19:29.588Z,0.16
2022-11-23T07:21:56.777Z,-0.02
2022-11-23T07:24:23.773Z,0.13
2022-11-23T07:26:51.161Z,0.05
2022-11-23T07:29:21.430Z,0.00
2022-11-23T07:31:48.536Z,0.05
2022-11-23T07:34:15.529Z,-0.04
2022-11-23T07:36:42.626Z,0.08
2022-11-23T07:39:09.897Z,-0.01
2022-11-23T07:41:36.875Z,-0.01
2022-11-23T07:44:04.348Z,0.06
2022-11-23T07:46:31.341Z,0.15
2022-11-23T07:49:02.142Z,0.27
2022-11-23T07:51:29.885Z,0.43
2022-11-23T07:53:57.468Z,0.38
2022-11-23T07:56:24.880Z,0.44
2022-11-23T07:58:52.141Z,0.41
2022-11-23T08:01:20.114Z,0.48
2022-11-23T08:03:48.479Z,0.69
2022-11-23T08:06:16.781Z,0.63
2022-11-23T08:08:44.052Z,0.80
2022-11-23T08:11:14.642Z,0.83
2022-11-23T08:13:41.675Z,0.92
2022-11-23T08:16:08.799Z,1.03
2022-11-23T08:18:38.198Z,1.09
2022-11-23T08:21:05.763Z,1.20
2022-11-23T08:23:33.023Z,1.32
2022-11-23T08:26:02.456Z,1.21
2022-11-23T08:28:29.588Z,1.24
2022-11-23T08:30:56.573Z,1.06
2022-11-23T08:33:23.577Z,1.24
2022-11-23T08:35:50.519Z,1.17
2022-11-23T08:38:17.612Z,1.49
2022-11-23T08:40:44.780Z,1.55
2022-11-23T08:43:11.783Z,1.62
2022-11-23T08:45:39.032Z,1.58
2022-11-23T08:48:06.992Z,1.76
2022-11-23T08:50:35.219Z,1.93
2022-11-23T08:53:02.247Z,1.99
2022-11-23T08:55:29.997Z,1.94
2022-11-23T08:57:58.502Z,2.00
2022-11-23T09:00:26.744Z,2.01
2022-11-23T09:02:53.869Z,2.15
2022-11-23T09:05:21.844Z,2.55
2022-11-23T09:07:49.015Z,2.35
2022-11-23T09:10:18.718Z,2.21
2022-11-23T09:12:48.258Z,2.16
2022-11-23T09:15:15.668Z,2.68
2022-11-23T09:17:42.983Z,2.83
2022-11-23T09:20:11.502Z,2.91
2022-11-23T09:22:39.261Z,2.66
2022-11-23T09:25:07.273Z,2.94
2022-11-23T09:27:34.422Z,3.16
2022-11-23T09:30:01.636Z,3.15
2022-11-23T09:32:29.148Z,3.31
2022-11-23T09:34:56.116Z,3.13
2022-11-23T09:37:23.208Z,3.10
2022-11-23T09:39:50.190Z,2.92
2022-11-23T09:42:47.292Z,3.27
2022-11-23T09:45:50.683Z,3.21
2022-11-23T09:49:14.827Z,3.35
2022-11-23T09:51:43.096Z,3.30
2022-11-23T09:54:37.512Z,3.13
2022-11-23T09:57:05.652Z,3.08
2022-11-23T09:59:53.259Z,3.14
2022-11-23T10:02:24.980Z,3.06
2022-11-23T10:04:53.588Z,3.22
2022-11-23T10:08:06.477Z,3.14
2022-11-23T10:10:46.659Z,3.31
2022-11-23T10:13:53.725Z,3.31
2022-11-23T10:17:14.768Z,3.29
2022-11-23T10:20:18.287Z,3.16
2022-11-23T10:23:01.868Z,3.04
2022-11-23T10:25:47.296Z,3.32
2022-11-23T10:28:19.858Z,3.58
2022-11-23T10:31:17.822Z,3.52
2022-11-23T10:34:23.668Z,3.59
2022-11-23T10:36:50.804Z,3.77
2022-11-23T10:39:25.948Z,3.47
2022-11-23T10:42:03.120Z,3.61
2022-11-23T10:44:38.060Z,3.50
2022-11-23T10:47:05.645Z,3.66
2022-11-23T10:49:35.488Z,3.63
2022-11-23T10:52:33.433Z,3.96
2022-11-23T10:55:06.142Z,4.11
2022-11-23T10:57:42.694Z,4.46
2022-11-23T11:00:15.402Z,4.69
2022-11-23T11:02:54.310Z,4.78
2022-11-23T11:08:36.871Z,4.72
2022-11-23T11:11:21.093Z,4.35
2022-11-23T11:13:49.490Z,4.36
2022-11-23T11:16:35.549Z,4.60
2022-11-23T11:19:36.420Z,4.56
2022-11-23T11:22:33.379Z,4.65
2022-11-23T11:25:02.344Z,5.09
2022-11-23T11:27:31.946Z,4.97
2022-11-23T11:30:20.525Z,4.95
2022-11-23T11:33:26.260Z,5.11
2022-11-23T11:35:56.521Z,5.30
2022-11-23T11:38:35.725Z,5.43
2022-11-23T11:41:15.584Z,5.52
2022-11-23T11:43:53.558Z,5.62
2022-11-23T11:46:29.641Z,5.20
2022-11-23T11:49:21.624Z,4.94
2022-11-23T11:52:19.017Z,5.10
2022-11-23T11:55:15.297Z,4.82
2022-11-23T11:57:50.075Z,5.17
2022-11-23T12:00:20.657Z,5.03
2022-11-23T12:03:42.922Z,5.06
2022-11-23T12:06:36.021Z,5.00
2022-11-23T12:09:20.209Z,5.22
2022-11-23T12:11:47.357Z,5.43
2022-11-23T12:14:15.626Z,5.33
2022-11-23T12:17:32.344Z,5.26
2022-11-23T12:20:22.634Z,5.73
2022-11-23T12:23:19.497Z,5.53
2022-11-23T12:26:29.969Z,5.81
2022-11-23T12:29:31.694Z,5.53
2022-11-23T12:32:51.807Z,5.38
2022-11-23T12:36:07.236Z,5.89
2022-11-23T12:39:09.985Z,5.84
2022-11-23T12:42:15.096Z,5.97
2022-11-23T12:44:59.647Z,5.87
2022-11-23T12:48:15.439Z,6.28
2022-11-23T12:51:23.573Z,6.35
2022-11-23T12:54:17.413Z,5.78
2022-11-23T12:57:02.268Z,5.77
2022-11-23T12:59:57.957Z,5.30
2022-11-23T13:02:57.292Z,5.34
2022-11-23T13:06:02.143Z,5.22
2022-11-23T13:09:07.443Z,5.64
2022-11-23T13:12:17.523Z,5.76
2022-11-23T13:15:23.156Z,5.70
2022-11-23T13:18:23.143Z,5.86
2022-11-23T13:21:30.361Z,5.75
2022-11-23T13:23:57.430Z,6.16
2022-11-23T13:26:33.964Z,5.94
2022-11-23T13:29:51.722Z,5.61
2022-11-23T13:32:42.311Z,5.53
2022-11-23T13:35:21.035Z,5.38
2022-11-23T13:37:56.697Z,5.22
2022-11-23T13:40:35.796Z,5.15
2022-11-23T13:43:32.624Z,4.85
2022-11-23T13:46:28.755Z,5.13
2022-11-23T13:49:00.582Z,4.87
2022-11-23T13:51:35.891Z,4.88
2022-11-23T13:54:21.852Z,4.71
2022-11-23T13:57:02.161Z,4.72
2022-11-23T13:59:34.879Z,4.46
2022-11-23T14:02:07.959Z,4.26
2022-11-23T14:05:11.634Z,4.19
2022-11-23T14:07:46.456Z,4.02
2022-11-23T14:10:24.388Z,4.07
2022-11-23T14:13:05.623Z,4.03
2022-11-23T14:15:38.292Z,3.85
2022-11-23T14:18:58.780Z,3.72
2022-11-23T14:21:39.259Z,3.63
2022-11-23T14:25:08.852Z,3.60
2022-11-23T14:28:32.047Z,3.42
2022-11-23T14:31:46.398Z,3.30
2022-11-23T14:34:41.307Z,3.31
2022-11-23T14:38:00.289Z,3.34
2022-11-23T14:41:19.337Z,3.28
2022-11-23T14:43:47.541Z,3.31
2022-11-23T14:46:24.653Z,3.32
2022-11-23T14:49:02.805Z,3.45
2022-11-23T14:51:30.002Z,3.54
2022-11-23T14:54:08.081Z,3.34
2022-11-23T14:56:47.459Z,2.92
2022-11-23T14:59:17.441Z,2.77
2022-11-23T15:02:11.672Z,2.68
2022-11-23T15:05:07.421Z,2.75
2022-11-23T15:08:21.819Z,2.68
2022-11-23T15:11:22.072Z,2.55
2022-11-23T15:13:55.430Z,2.66
2022-11-23T15:16:22.676Z,2.78
2022-11-23T15:18:49.777Z,2.79
2022-11-23T15:21:27.968Z,2.59
2022-11-23T15:23:58.200Z,2.49
2022-11-23T15:26:48.090Z,2.44
2022-11-23T15:29:39.113Z,2.06
2022-11-23T15:32:34.693Z,1.90
2022-11-23T15:35:12.919Z,1.83
2022-11-23T15:37:48.855Z,1.81
2022-11-23T15:40:19.333Z,1.75
2022-11-23T15:42:51.126Z,1.70
2022-11-23T15:45:45.660Z,1.73
2022-11-23T15:48:23.130Z,1.70
2022-11-23T15:51:04.634Z,1.72
2022-11-23T15:53:51.872Z,1.77
2022-11-23T15:56:36.137Z,1.88
2022-11-23T15:59:33.590Z,1.92
2022-11-23T16:02:04.822Z,1.88
2022-11-23T16:04:41.346Z,1.84
2022-11-23T16:07:25.697Z,1.89
2022-11-23T16:10:22.945Z,1.86
2022-11-23T16:12:57.145Z,1.90
2022-11-23T16:15:44.124Z,1.84
2022-11-23T16:18:31.779Z,1.77
2022-11-23T16:21:04.892Z,1.61
2022-11-23T16:24:04.905Z,1.74
2022-11-23T16:26:33.772Z,1.79
2022-11-23T16:29:02.074Z,1.79
2022-11-23T16:31:37.013Z,1.84
2022-11-23T16:34:16.492Z,1.95
2022-11-23T16:36:43.483Z,1.92
2022-11-23T16:39:11.190Z,2.06
2022-11-23T16:41:38.461Z,2.16
2022-11-23T16:44:05.671Z,2.11
2022-11-23T16:46:33.029Z,1.90
2022-11-23T16:49:00.669Z,1.83
2022-11-23T16:51:30.471Z,1.89
2022-11-23T16:54:15.284Z,1.86
2022-11-23T16:56:45.187Z,1.75
2022-11-23T16:59:22.704Z,1.78
2022-11-23T17:01:56.623Z,1.91
2022-11-23T17:04:25.361Z,2.02
2022-11-23T17:06:52.404Z,2.08
2022-11-23T17:09:19.531Z,2.18
2022-11-23T17:11:50.227Z,2.02
2022-11-23T17:14:19.149Z,2.02
2022-11-23T17:16:57.389Z,1.84
2022-11-23T17:19:24.443Z,1.70
2022-11-23T17:21:51.622Z,1.53
2022-11-23T17:24:18.906Z,1.41
2022-11-23T17:26:52.632Z,1.49
2022-11-23T17:29:21.239Z,1.48
2022-11-23T17:31:50.559Z,1.40
2022-11-23T17:34:18.003Z,1.42
2022-11-23T17:36:49.281Z,1.54
2022-11-23T17:39:23.550Z,1.44
2022-11-23T17:41:51.135Z,1.42
2022-11-23T17:44:18.267Z,1.28
2022-11-23T17:46:47.045Z,1.47
2022-11-23T17:49:19.943Z,1.58
2022-11-23T17:51:47.081Z,1.71
2022-11-23T17:54:14.051Z,1.79
2022-11-23T17:56:41.085Z,1.77
2022-11-23T17:59:08.613Z,1.69
2022-11-23T18:01:35.744Z,1.70
2022-11-23T18:04:04.831Z,1.80
2022-11-23T18:06:32.026Z,1.72
2022-11-23T18:08:59.267Z,1.58
2022-11-23T18:11:28.383Z,1.71
2022-11-23T18:13:55.697Z,1.82
2022-11-23T18:16:23.810Z,1.86
2022-11-23T18:18:51.026Z,1.86
2022-11-23T18:21:18.941Z,1.88
2022-11-23T18:23:46.124Z,1.95
2022-11-23T18:26:25.874Z,1.98
2022-11-23T18:28:53.666Z,2.03
2022-11-23T18:31:21.146Z,2.10
2022-11-23T18:33:48.238Z,2.01
2022-11-23T18:36:15.882Z,2.05
2022-11-23T18:38:46.597Z,1.98
2022-11-23T18:41:16.398Z,2.05
2022-11-23T18:43:45.316Z,1.98
2022-11-23T18:46:19.132Z,1.88
2022-11-23T18:48:48.767Z,2.05
2022-11-23T18:51:17.269Z,2.04
2022-11-23T18:53:47.322Z,2.12
2022-11-23T18:56:14.387Z,2.20
2022-11-23T18:58:44.625Z,2.19
2022-11-23T19:01:21.919Z,1.99
2022-11-23T19:03:52.842Z,1.98
2022-11-23T19:06:22.737Z,1.94
2022-11-23T19:08:54.573Z,1.90
2022-11-23T19:11:25.970Z,1.92
2022-11-23T19:13:57.551Z,1.83
2022-11-23T19:16:29.985Z,1.71
2022-11-23T19:19:06.671Z,1.69
2022-11-23T19:21:36.028Z,1.67
2022-11-23T19:24:04.092Z,1.71
2022-11-23T19:26:31.606Z,1.73
2022-11-23T19:28:59.384Z,1.62
2022-11-23T19:31:30.284Z,1.65
2022-11-23T19:34:01.577Z,1.64
2022-11-23T19:36:31.147Z,1.69
2022-11-23T19:39:00.547Z,1.67
2022-11-23T19:41:30.654Z,1.63
2022-11-23T19:44:00.413Z,1.61
2022-11-23T19:46:30.299Z,1.61
2022-11-23T19:48:58.384Z,1.64
2022-11-23T19:51:26.879Z,1.50
2022-11-23T19:53:57.030Z,1.41
2022-11-23T19:56:28.734Z,1.32
2022-11-23T19:59:01.155Z,1.10
2022-11-23T20:01:32.089Z,1.22
2022-11-23T20:04:08.841Z,1.18
2022-11-23T20:06:38.649Z,1.00
2022-11-23T20:09:10.216Z,0.85
2022-11-23T20:11:40.354Z,0.90
2022-11-23T20:14:10.679Z,0.95
2022-11-23T20:16:38.634Z,1.04
2022-11-23T20:19:09.405Z,1.16
2022-11-23T20:21:37.885Z,1.08
2022-11-23T20:24:11.441Z,0.98
2022-11-23T20:26:39.152Z,1.08
2022-11-23T20:29:08.463Z,1.00
2022-11-23T20:31:37.121Z,0.86
2022-11-23T20:34:07.547Z,0.84
2022-11-23T20:36:38.021Z,0.87
2022-11-23T20:39:09.768Z,0.95
2022-11-23T20:41:38.472Z,0.95
2022-11-23T20:44:12.642Z,0.91
2022-11-23T20:49:27.896Z,0.99
2022-11-23T20:51:54.895Z,0.91
2022-11-23T20:54:21.923Z,0.89
2022-11-23T20:56:48.912Z,0.90
2022-11-23T20:59:16.061Z,0.77
2022-11-23T21:01:43.110Z,0.67
2022-11-23T21:04:10.263Z,0.67
2022-11-23T21:06:39.814Z,0.60
2022-11-23T21:09:09.250Z,0.67
2022-11-23T21:11:58.324Z,0.72
2022-11-23T21:14:27.992Z,0.69
2022-11-23T21:16:59.276Z,0.73
2022-11-23T21:19:42.009Z,0.60
2022-11-23T21:22:13.433Z,0.79
2022-11-23T21:24:40.882Z,0.63
2022-11-23T21:27:12.504Z,0.51
2022-11-23T21:29:39.533Z,0.71
2022-11-23T21:32:06.564Z,0.58
2022-11-23T21:34:33.891Z,0.49
2022-11-23T21:37:01.613Z,0.53
2022-11-23T21:39:31.544Z,0.70
2022-11-23T21:41:58.856Z,0.72
2022-11-23T21:44:26.368Z,0.71
2022-11-23T21:46:53.495Z,0.55
2022-11-23T21:49:20.593Z,0.41
2022-11-23T21:51:48.191Z,0.25
2022-11-23T21:54:15.700Z,0.18
2022-11-23T21:56:45.609Z,0.38
2022-11-23T21:59:13.333Z,0.39
2022-11-23T22:01:42.479Z,0.37
2022-11-23T22:04:16.159Z,0.27
2022-11-23T22:06:45.325Z,0.25
2022-11-23T22:09:13.774Z,0.24
2022-11-23T22:11:43.653Z,0.32
2022-11-23T22:14:15.208Z,0.23
2022-11-23T22:16:56.608Z,0.14
2022-11-23T22:19:27.389Z,0.01
2022-11-23T22:21:54.506Z,-0.03
2022-11-23T22:24:22.586Z,-0.11
2022-11-23T22:26:49.939Z,-0.07
2022-11-23T22:29:17.225Z,0.03
2022-11-23T22:31:44.462Z,0.11
2022-11-23T22:34:13.807Z,0.11
2022-11-23T22:36:41.368Z,0.25
2022-11-23T22:39:09.532Z,0.26
2022-11-23T22:41:38.181Z,0.32
2022-11-23T22:44:09.808Z,0.32
2022-11-23T22:46:38.536Z,0.36
2022-11-23T22:49:06.020Z,0.46
2022-11-23T22:51:33.724Z,0.31
2022-11-23T22:54:01.953Z,0.43
2022-11-23T22:56:31.171Z,0.35
2022-11-23T22:58:58.969Z,0.27
2022-11-23T23:01:30.136Z,0.62
2022-11-23T23:04:01.422Z,0.70
2022-11-23T23:06:35.832Z,0.84
2022-11-23T23:09:07.188Z,0.70
2022-11-23T23:11:35.699Z,0.75
2022-11-23T23:14:03.551Z,0.68
2022-11-23T23:16:31.023Z,0.82
2022-11-23T23:18:59.666Z,1.01
2022-11-23T23:21:29.116Z,0.74
2022-11-23T23:24:00.937Z,0.85
2022-11-23T23:26:29.106Z,0.99
2022-11-23T23:28:59.763Z,1.15
2022-11-23T23:31:28.459Z,1.08
2022-11-23T23:33:55.770Z,0.98
2022-11-23T23:36:24.451Z,1.18
2022-11-23T23:38:52.121Z,1.25
2022-11-23T23:41:19.664Z,1.14
2022-11-23T23:43:48.294Z,0.99
2022-11-23T23:46:16.362Z,1.08
2022-11-23T23:48:44.061Z,1.14
2022-11-23T23:51:18.152Z,1.26
2022-11-23T23:53:46.640Z,1.52
2022-11-23T23:56:27.121Z,1.36
2022-11-23T23:58:59.044Z,1.39
